sensor_id;sensor_type;location;lat;lon;timestamp;pressure;altitude;pressure_sealevel;temperature;humidity
26865;BME280;40618;51.166;10.322;2022-09-20T00:01:05;97691.97;;;7.56;81.30
26865;BME280;40618;51.166;10.322;2022-09-20T00:03:34;97695.47;;;7.53;80.84
26865;BME280;40618;51.166;10.322;2022-09-20T00:06:03;97691.22;;;7.49;81.69
26865;BME280;40618;51.166;10.322;2022-09-20T00:08:30;97690.38;;;7.47;81.13
26865;BME280;40618;51.166;10.322;2022-09-20T00:10:58;97692.13;;;7.43;81.08
26865;BME280;40618;51.166;10.322;2022-09-20T00:13:26;97698.16;;;7.44;81.34
26865;BME280;40618;51.166;10.322;2022-09-20T00:15:53;97693.03;;;7.42;81.34
26865;BME280;40618;51.166;10.322;2022-09-20T00:18:19;97687.84;;;7.44;81.14
26865;BME280;40618;51.166;10.322;2022-09-20T00:20:46;97694.63;;;7.50;81.44
26865;BME280;40618;51.166;10.322;2022-09-20T00:23:13;97688.56;;;7.54;81.70
26865;BME280;40618;51.166;10.322;2022-09-20T00:25:39;97683.34;;;7.57;81.42
26865;BME280;40618;51.166;10.322;2022-09-20T00:28:05;97681.63;;;7.59;81.67
26865;BME280;40618;51.166;10.322;2022-09-20T00:30:32;97690.16;;;7.61;81.42
26865;BME280;40618;51.166;10.322;2022-09-20T00:32:58;97689.28;;;7.63;81.05
26865;BME280;40618;51.166;10.322;2022-09-20T00:35:24;97686.72;;;7.62;81.08
26865;BME280;40618;51.166;10.322;2022-09-20T00:37:50;97691.03;;;7.63;81.52
26865;BME280;40618;51.166;10.322;2022-09-20T00:40:18;97698.75;;;7.63;81.26
26865;BME280;40618;51.166;10.322;2022-09-20T00:42:46;97700.50;;;7.59;81.02
26865;BME280;40618;51.166;10.322;2022-09-20T00:45:24;97699.69;;;7.57;81.61
26865;BME280;40618;51.166;10.322;2022-09-20T00:50:45;97696.44;;;7.43;81.21
26865;BME280;40618;51.166;10.322;2022-09-20T00:53:19;97701.59;;;7.43;81.11
26865;BME280;40618;51.166;10.322;2022-09-20T00:56:07;97698.19;;;7.41;81.66
26865;BME280;40618;51.166;10.322;2022-09-20T00:58:39;97695.53;;;7.47;81.98
26865;BME280;40618;51.166;10.322;2022-09-20T01:01:09;97697.22;;;7.50;81.08
26865;BME280;40618;51.166;10.322;2022-09-20T01:03:36;97698.88;;;7.54;81.95
26865;BME280;40618;51.166;10.322;2022-09-20T01:06:09;97706.53;;;7.58;81.90
26865;BME280;40618;51.166;10.322;2022-09-20T01:08:37;97695.34;;;7.59;81.89
26865;BME280;40618;51.166;10.322;2022-09-20T01:11:06;97702.16;;;7.63;81.74
26865;BME280;40618;51.166;10.322;2022-09-20T01:13:32;97697.03;;;7.62;81.29
26865;BME280;40618;51.166;10.322;2022-09-20T01:15:58;97696.25;;;7.57;81.51
26865;BME280;40618;51.166;10.322;2022-09-20T01:18:28;97698.78;;;7.58;81.24
26865;BME280;40618;51.166;10.322;2022-09-20T01:20:57;97697.09;;;7.59;81.59
26865;BME280;40618;51.166;10.322;2022-09-20T01:32:11;97703.09;;;7.59;81.82
26865;BME280;40618;51.166;10.322;2022-09-20T01:34:47;97701.38;;;7.58;82.28
26865;BME280;40618;51.166;10.322;2022-09-20T01:37:25;97703.97;;;7.60;81.99
26865;BME280;40618;51.166;10.322;2022-09-20T01:43:12;97706.44;;;7.66;81.33
26865;BME280;40618;51.166;10.322;2022-09-20T01:45:48;97705.63;;;7.64;81.38
26865;BME280;40618;51.166;10.322;2022-09-20T01:51:39;97699.56;;;7.65;81.44
26865;BME280;40618;51.166;10.322;2022-09-20T01:54:29;97704.75;;;7.63;81.81
26865;BME280;40618;51.166;10.322;2022-09-20T01:57:50;97711.59;;;7.66;81.71
26865;BME280;40618;51.166;10.322;2022-09-20T02:01:12;97699.53;;;7.67;81.58
26865;BME280;40618;51.166;10.322;2022-09-20T02:43:30;97690.09;;;7.67;82.36
26865;BME280;40618;51.166;10.322;2022-09-20T02:52:06;97694.38;;;7.68;81.48
26865;BME280;40618;51.166;10.322;2022-09-20T02:55:10;97694.34;;;7.71;82.59
26865;BME280;40618;51.166;10.322;2022-09-20T02:57:54;97697.75;;;7.72;81.83
26865;BME280;40618;51.166;10.322;2022-09-20T03:00:41;97701.22;;;7.69;82.09
26865;BME280;40618;51.166;10.322;2022-09-20T03:03:45;97702.97;;;7.67;81.61
26865;BME280;40618;51.166;10.322;2022-09-20T03:18:15;97708.22;;;7.61;81.89
26865;BME280;40618;51.166;10.322;2022-09-20T03:21:26;97701.31;;;7.63;82.21
26865;BME280;40618;51.166;10.322;2022-09-20T03:24:01;97709.00;;;7.66;82.28
26865;BME280;40618;51.166;10.322;2022-09-20T03:35:21;97708.91;;;7.74;82.12
26865;BME280;40618;51.166;10.322;2022-09-20T03:41:15;97708.94;;;7.72;82.01
26865;BME280;40618;51.166;10.322;2022-09-20T03:49:29;97704.66;;;7.70;82.09
26865;BME280;40618;51.166;10.322;2022-09-20T03:52:19;97712.44;;;7.68;81.74
26865;BME280;40618;51.166;10.322;2022-09-20T03:55:02;97710.66;;;7.70;82.23
26865;BME280;40618;51.166;10.322;2022-09-20T04:06:33;97717.50;;;7.73;82.48
26865;BME280;40618;51.166;10.322;2022-09-20T04:12:24;97717.50;;;7.73;82.28
26865;BME280;40618;51.166;10.322;2022-09-20T04:20:54;97717.56;;;7.70;82.25
26865;BME280;40618;51.166;10.322;2022-09-20T04:23:51;97715.78;;;7.72;82.00
26865;BME280;40618;51.166;10.322;2022-09-20T04:26:46;97714.06;;;7.74;82.45
26865;BME280;40618;51.166;10.322;2022-09-20T04:32:30;97720.13;;;7.71;82.50
26865;BME280;40618;51.166;10.322;2022-09-20T04:38:17;97716.66;;;7.72;82.08
26865;BME280;40618;51.166;10.322;2022-09-20T04:41:13;97725.25;;;7.73;82.07
26865;BME280;40618;51.166;10.322;2022-09-20T04:56:00;97740.66;;;7.76;82.17
26865;BME280;40618;51.166;10.322;2022-09-20T04:59:07;97744.06;;;7.78;82.14
26865;BME280;40618;51.166;10.322;2022-09-20T05:01:52;97743.19;;;7.81;82.89
26865;BME280;40618;51.166;10.322;2022-09-20T05:11:20;97755.16;;;7.83;82.76
26865;BME280;40618;51.166;10.322;2022-09-20T05:19:38;97750.03;;;7.80;82.24
26865;BME280;40618;51.166;10.322;2022-09-20T05:22:14;97752.56;;;7.83;82.62
26865;BME280;40618;51.166;10.322;2022-09-20T05:28:15;97756.06;;;7.82;82.72
26865;BME280;40618;51.166;10.322;2022-09-20T05:40:02;97756.88;;;7.83;81.85
26865;BME280;40618;51.166;10.322;2022-09-20T05:43:04;97770.66;;;7.80;82.18
26865;BME280;40618;51.166;10.322;2022-09-20T05:49:06;97785.22;;;7.84;82.18
26865;BME280;40618;51.166;10.322;2022-09-20T05:54:27;97782.66;;;7.84;81.73
26865;BME280;40618;51.166;10.322;2022-09-20T06:00:09;97793.81;;;7.86;82.43
26865;BME280;40618;51.166;10.322;2022-09-20T06:02:40;97790.34;;;7.89;82.53
26865;BME280;40618;51.166;10.322;2022-09-20T06:17:42;97793.69;;;7.92;81.59
26865;BME280;40618;51.166;10.322;2022-09-20T06:20:24;97792.88;;;7.92;82.74
26865;BME280;40618;51.166;10.322;2022-09-20T06:22:57;97803.19;;;7.92;82.72
26865;BME280;40618;51.166;10.322;2022-09-20T06:25:46;97799.75;;;7.91;82.09
26865;BME280;40618;51.166;10.322;2022-09-20T06:28:32;97809.16;;;7.94;82.15
26865;BME280;40618;51.166;10.322;2022-09-20T06:31:01;97803.09;;;7.96;81.86
26865;BME280;40618;51.166;10.322;2022-09-20T06:33:31;97802.16;;;8.02;82.43
26865;BME280;40618;51.166;10.322;2022-09-20T06:36:26;97808.13;;;8.06;82.37
26865;BME280;40618;51.166;10.322;2022-09-20T06:42:34;97811.53;;;8.09;82.01
26865;BME280;40618;51.166;10.322;2022-09-20T06:45:00;97815.03;;;8.05;81.93
26865;BME280;40618;51.166;10.322;2022-09-20T06:47:25;97820.22;;;8.04;82.31
26865;BME280;40618;51.166;10.322;2022-09-20T06:49:51;97812.41;;;8.07;82.61
26865;BME280;40618;51.166;10.322;2022-09-20T06:52:19;97820.97;;;8.12;82.62
26865;BME280;40618;51.166;10.322;2022-09-20T06:54:49;97820.84;;;8.18;81.89
26865;BME280;40618;51.166;10.322;2022-09-20T06:57:22;97819.06;;;8.23;82.07
26865;BME280;40618;51.166;10.322;2022-09-20T06:59:52;97824.16;;;8.26;82.85
26865;BME280;40618;51.166;10.322;2022-09-20T07:02:18;97821.56;;;8.28;81.97
26865;BME280;40618;51.166;10.322;2022-09-20T07:04:44;97823.22;;;8.32;82.58
26865;BME280;40618;51.166;10.322;2022-09-20T07:07:15;97828.34;;;8.35;82.49
26865;BME280;40618;51.166;10.322;2022-09-20T07:09:44;97822.31;;;8.35;82.16
26865;BME280;40618;51.166;10.322;2022-09-20T07:12:10;97827.56;;;8.30;82.17
26865;BME280;40618;51.166;10.322;2022-09-20T07:14:36;97834.41;;;8.33;82.10
26865;BME280;40618;51.166;10.322;2022-09-20T07:17:02;97830.94;;;8.35;82.16
26865;BME280;40618;51.166;10.322;2022-09-20T07:19:28;97839.53;;;8.36;82.19
26865;BME280;40618;51.166;10.322;2022-09-20T07:21:54;97840.41;;;8.33;81.93
26865;BME280;40618;51.166;10.322;2022-09-20T07:24:20;97847.31;;;8.33;81.84
26865;BME280;40618;51.166;10.322;2022-09-20T07:26:57;97842.13;;;8.34;81.78
26865;BME280;40618;51.166;10.322;2022-09-20T07:29:24;97836.06;;;8.37;81.76
26865;BME280;40618;51.166;10.322;2022-09-20T07:31:51;97846.38;;;8.38;81.89
26865;BME280;40618;51.166;10.322;2022-09-20T07:34:17;97847.19;;;8.40;82.73
26865;BME280;40618;51.166;10.322;2022-09-20T07:36:47;97854.00;;;8.44;82.26
26865;BME280;40618;51.166;10.322;2022-09-20T07:39:16;97849.72;;;8.46;82.51
26865;BME280;40618;51.166;10.322;2022-09-20T07:41:42;97847.13;;;8.46;82.26
26865;BME280;40618;51.166;10.322;2022-09-20T07:44:15;97861.72;;;8.49;82.21
26865;BME280;40618;51.166;10.322;2022-09-20T07:46:58;97859.13;;;8.49;81.55
26865;BME280;40618;51.166;10.322;2022-09-20T07:49:26;97866.00;;;8.52;82.49
26865;BME280;40618;51.166;10.322;2022-09-20T07:51:55;97872.81;;;8.56;82.38
26865;BME280;40618;51.166;10.322;2022-09-20T07:54:22;97870.19;;;8.57;82.03
26865;BME280;40618;51.166;10.322;2022-09-20T07:56:48;97876.16;;;8.62;81.82
26865;BME280;40618;51.166;10.322;2022-09-20T07:59:14;97870.91;;;8.67;82.37
26865;BME280;40618;51.166;10.322;2022-09-20T08:01:41;97875.16;;;8.70;81.83
26865;BME280;40618;51.166;10.322;2022-09-20T08:04:08;97873.41;;;8.72;81.42
26865;BME280;40618;51.166;10.322;2022-09-20T08:06:39;97877.63;;;8.76;82.19
26865;BME280;40618;51.166;10.322;2022-09-20T08:09:07;97882.81;;;8.76;81.73
26865;BME280;40618;51.166;10.322;2022-09-20T08:11:34;97882.84;;;8.74;81.78
26865;BME280;40618;51.166;10.322;2022-09-20T08:14:01;97886.19;;;8.79;81.57
26865;BME280;40618;51.166;10.322;2022-09-20T08:16:28;97889.56;;;8.85;81.95
26865;BME280;40618;51.166;10.322;2022-09-20T08:18:57;97891.13;;;8.93;81.71
26865;BME280;40618;51.166;10.322;2022-09-20T08:21:26;97883.31;;;9.00;81.87
26865;BME280;40618;51.166;10.322;2022-09-20T08:23:56;97886.59;;;9.08;81.78
26865;BME280;40618;51.166;10.322;2022-09-20T08:26:23;97884.75;;;9.13;81.71
26865;BME280;40618;51.166;10.322;2022-09-20T08:28:55;97881.28;;;9.15;81.75
26865;BME280;40618;51.166;10.322;2022-09-20T08:31:24;97893.28;;;9.18;82.42
26865;BME280;40618;51.166;10.322;2022-09-20T08:33:53;97894.19;;;9.15;81.94
26865;BME280;40618;51.166;10.322;2022-09-20T08:36:21;97889.94;;;9.14;82.14
26865;BME280;40618;51.166;10.322;2022-09-20T08:38:48;97895.94;;;9.15;81.70
26865;BME280;40618;51.166;10.322;2022-09-20T08:41:28;97899.44;;;9.12;81.59
26865;BME280;40618;51.166;10.322;2022-09-20T08:44:01;97898.63;;;9.10;81.48
26865;BME280;40618;51.166;10.322;2022-09-20T08:46:32;97895.28;;;9.04;81.21
26865;BME280;40618;51.166;10.322;2022-09-20T08:49:06;97906.56;;;8.98;81.50
26865;BME280;40618;51.166;10.322;2022-09-20T08:51:37;97913.41;;;8.99;81.92
26865;BME280;40618;51.166;10.322;2022-09-20T08:54:06;97899.63;;;9.00;82.18
26865;BME280;40618;51.166;10.322;2022-09-20T08:56:38;97903.84;;;9.06;81.51
26865;BME280;40618;51.166;10.322;2022-09-20T08:59:05;97903.81;;;9.07;81.51
26865;BME280;40618;51.166;10.322;2022-09-20T09:01:40;97901.19;;;9.10;81.83
26865;BME280;40618;51.166;10.322;2022-09-20T09:04:15;97904.53;;;9.15;82.06
26865;BME280;40618;51.166;10.322;2022-09-20T09:06:47;97905.28;;;9.22;81.40
26865;BME280;40618;51.166;10.322;2022-09-20T09:09:21;97897.50;;;9.24;82.12
26865;BME280;40618;51.166;10.322;2022-09-20T09:11:49;97906.91;;;9.29;81.80
26865;BME280;40618;51.166;10.322;2022-09-20T09:14:29;97915.41;;;9.35;81.82
26865;BME280;40618;51.166;10.322;2022-09-20T09:17:17;97910.31;;;9.31;81.71
26865;BME280;40618;51.166;10.322;2022-09-20T09:19:53;97913.78;;;9.29;81.24
26865;BME280;40618;51.166;10.322;2022-09-20T09:22:28;97915.44;;;9.33;81.92
26865;BME280;40618;51.166;10.322;2022-09-20T09:30:39;97934.09;;;9.51;81.17
26865;BME280;40618;51.166;10.322;2022-09-20T09:38:34;97928.72;;;9.61;81.20
26865;BME280;40618;51.166;10.322;2022-09-20T09:41:05;97927.06;;;9.57;81.20
26865;BME280;40618;51.166;10.322;2022-09-20T09:44:15;97929.69;;;9.56;81.15
26865;BME280;40618;51.166;10.322;2022-09-20T09:46:44;97924.41;;;9.60;81.52
26865;BME280;40618;51.166;10.322;2022-09-20T09:49:16;97924.38;;;9.62;81.39
26865;BME280;40618;51.166;10.322;2022-09-20T09:54:29;97912.84;;;10.24;81.69
26865;BME280;40618;51.166;10.322;2022-09-20T10:00:13;97918.59;;;10.38;81.05
26865;BME280;40618;51.166;10.322;2022-09-20T10:14:57;97911.22;;;10.18;80.28
26865;BME280;40618;51.166;10.322;2022-09-20T10:22:56;97927.56;;;10.20;80.08
26865;BME280;40618;51.166;10.322;2022-09-20T10:25:41;97926.78;;;10.16;80.31
26865;BME280;40618;51.166;10.322;2022-09-20T10:36:43;97919.34;;;10.43;80.69
26865;BME280;40618;51.166;10.322;2022-09-20T10:41:59;97932.88;;;10.55;80.03
26865;BME280;40618;51.166;10.322;2022-09-20T10:51:12;97940.81;;;10.47;80.06
26865;BME280;40618;51.166;10.322;2022-09-20T10:57:15;97933.53;;;10.24;79.78
26865;BME280;40618;51.166;10.322;2022-09-20T11:05:27;97938.66;;;10.27;80.29
26865;BME280;40618;51.166;10.322;2022-09-20T11:08:16;97947.19;;;10.32;80.03
26865;BME280;40618;51.166;10.322;2022-09-20T11:10:53;97942.91;;;10.29;79.66
26865;BME280;40618;51.166;10.322;2022-09-20T11:14:05;97937.81;;;10.25;79.26
26865;BME280;40618;51.166;10.322;2022-09-20T11:17:06;97943.00;;;10.25;79.83
26865;BME280;40618;51.166;10.322;2022-09-20T11:22:55;97938.41;;;10.39;80.11
26865;BME280;40618;51.166;10.322;2022-09-20T11:25:35;97938.16;;;10.52;79.77
26865;BME280;40618;51.166;10.322;2022-09-20T11:28:15;97936.28;;;10.58;79.71
26865;BME280;40618;51.166;10.322;2022-09-20T11:31:01;97942.28;;;10.59;79.75
26865;BME280;40618;51.166;10.322;2022-09-20T11:39:38;97939.13;;;10.83;79.55
26865;BME280;40618;51.166;10.322;2022-09-20T11:42:20;97937.38;;;10.86;79.44
26865;BME280;40618;51.166;10.322;2022-09-20T11:44:57;97955.56;;;10.84;79.41
26865;BME280;40618;51.166;10.322;2022-09-20T11:47:27;97952.97;;;10.82;79.32
26865;BME280;40618;51.166;10.322;2022-09-20T11:55:53;97946.44;;;10.66;79.48
26865;BME280;40618;51.166;10.322;2022-09-20T11:58:24;97939.66;;;10.60;79.19
26865;BME280;40618;51.166;10.322;2022-09-20T12:00:53;97938.00;;;10.58;79.02
26865;BME280;40618;51.166;10.322;2022-09-20T12:03:32;97939.72;;;10.59;79.61
26865;BME280;40618;51.166;10.322;2022-09-20T12:06:06;97940.41;;;10.65;79.71
26865;BME280;40618;51.166;10.322;2022-09-20T12:08:51;97933.38;;;10.72;79.65
26865;BME280;40618;51.166;10.322;2022-09-20T12:11:33;97937.38;;;10.86;79.81
26865;BME280;40618;51.166;10.322;2022-09-20T12:14:18;97938.06;;;10.94;79.75
26865;BME280;40618;51.166;10.322;2022-09-20T12:16:56;97941.09;;;11.10;79.64
26865;BME280;40618;51.166;10.322;2022-09-20T12:24:36;97932.13;;;11.23;79.18
26865;BME280;40618;51.166;10.322;2022-09-20T12:32:45;97932.00;;;11.29;78.88
26865;BME280;40618;51.166;10.322;2022-09-20T12:35:51;97932.13;;;11.23;78.89
26865;BME280;40618;51.166;10.322;2022-09-20T12:38:27;97929.44;;;11.28;79.12
26865;BME280;40618;51.166;10.322;2022-09-20T12:41:03;97939.56;;;11.37;79.16
26865;BME280;40618;51.166;10.322;2022-09-20T12:43:30;97941.13;;;11.44;78.88
26865;BME280;40618;51.166;10.322;2022-09-20T12:45:58;97949.06;;;11.38;78.62
26865;BME280;40618;51.166;10.322;2022-09-20T12:48:34;97935.06;;;11.44;78.34
26865;BME280;40618;51.166;10.322;2022-09-20T12:54:06;97960.78;;;11.53;78.33
26865;BME280;40618;51.166;10.322;2022-09-20T12:56:37;97954.19;;;11.40;77.70
26865;BME280;40618;51.166;10.322;2022-09-20T12:59:26;97962.41;;;11.23;77.80
26865;BME280;40618;51.166;10.322;2022-09-20T13:01:55;97959.44;;;11.02;77.25
26865;BME280;40618;51.166;10.322;2022-09-20T13:07:42;97958.44;;;10.70;77.31
26865;BME280;40618;51.166;10.322;2022-09-20T13:10:28;97957.78;;;10.60;77.98
26865;BME280;40618;51.166;10.322;2022-09-20T13:13:02;97954.47;;;10.55;77.61
26865;BME280;40618;51.166;10.322;2022-09-20T13:15:36;97953.88;;;10.42;77.43
26865;BME280;40618;51.166;10.322;2022-09-20T13:18:04;97951.44;;;10.35;77.55
26865;BME280;40618;51.166;10.322;2022-09-20T13:20:31;97948.97;;;10.28;78.03
26865;BME280;40618;51.166;10.322;2022-09-20T13:23:00;97954.03;;;10.35;78.41
26865;BME280;40618;51.166;10.322;2022-09-20T13:25:29;97960.81;;;10.42;78.54
26865;BME280;40618;51.166;10.322;2022-09-20T13:28:17;97956.22;;;10.53;78.22
26865;BME280;40618;51.166;10.322;2022-09-20T13:31:15;97955.31;;;10.56;78.16
26865;BME280;40618;51.166;10.322;2022-09-20T13:33:48;97949.94;;;10.65;78.29
26865;BME280;40618;51.166;10.322;2022-09-20T13:36:23;97955.75;;;10.75;78.20
26865;BME280;40618;51.166;10.322;2022-09-20T13:38:52;97956.31;;;10.88;78.45
26865;BME280;40618;51.166;10.322;2022-09-20T13:41:20;97954.34;;;10.99;78.84
26865;BME280;40618;51.166;10.322;2022-09-20T13:43:47;97956.59;;;11.13;78.41
26865;BME280;40618;51.166;10.322;2022-09-20T13:46:17;97954.63;;;11.23;78.73
26865;BME280;40618;51.166;10.322;2022-09-20T13:48:58;97959.81;;;11.23;78.09
26865;BME280;40618;51.166;10.322;2022-09-20T13:51:39;97959.78;;;11.24;77.86
26865;BME280;40618;51.166;10.322;2022-09-20T13:57:02;97963.34;;;11.20;77.96
26865;BME280;40618;51.166;10.322;2022-09-20T13:59:41;97976.53;;;11.09;77.55
26865;BME280;40618;51.166;10.322;2022-09-20T14:04:58;97966.63;;;10.91;77.64
26865;BME280;40618;51.166;10.322;2022-09-20T14:07:26;97967.03;;;10.72;77.49
26865;BME280;40618;51.166;10.322;2022-09-20T14:09:54;97966.47;;;10.59;77.54
26865;BME280;40618;51.166;10.322;2022-09-20T14:12:22;97964.94;;;10.49;77.55
26865;BME280;40618;51.166;10.322;2022-09-20T14:14:49;97961.59;;;10.44;77.55
26865;BME280;40618;51.166;10.322;2022-09-20T14:17:17;97954.84;;;10.37;77.91
26865;BME280;40618;51.166;10.322;2022-09-20T14:19:48;97958.41;;;10.31;78.05
26865;BME280;40618;51.166;10.322;2022-09-20T14:22:22;97953.41;;;10.22;77.97
26865;BME280;40618;51.166;10.322;2022-09-20T14:25:01;97950.94;;;10.15;77.84
26865;BME280;40618;51.166;10.322;2022-09-20T14:28:23;97940.66;;;10.12;77.93
26865;BME280;40618;51.166;10.322;2022-09-20T14:30:49;97946.69;;;10.13;78.27
26865;BME280;40618;51.166;10.322;2022-09-20T14:33:18;97944.91;;;10.15;78.03
26865;BME280;40618;51.166;10.322;2022-09-20T14:35:47;97954.34;;;10.18;78.56
26865;BME280;40618;51.166;10.322;2022-09-20T14:38:17;97952.56;;;10.21;78.45
26865;BME280;40618;51.166;10.322;2022-09-20T14:40:48;97958.50;;;10.25;78.09
26865;BME280;40618;51.166;10.322;2022-09-20T14:43:30;97953.22;;;10.31;78.82
26865;BME280;40618;51.166;10.322;2022-09-20T14:45:59;97960.88;;;10.37;78.72
26865;BME280;40618;51.166;10.322;2022-09-20T14:48:37;97954.75;;;10.41;78.30
26865;BME280;40618;51.166;10.322;2022-09-20T14:53:41;97957.22;;;10.47;78.64
26865;BME280;40618;51.166;10.322;2022-09-20T14:56:10;97964.91;;;10.50;78.18
26865;BME280;40618;51.166;10.322;2022-09-20T14:59:00;97964.88;;;10.52;78.45
26865;BME280;40618;51.166;10.322;2022-09-20T15:01:25;97964.91;;;10.50;78.20
26865;BME280;40618;51.166;10.322;2022-09-20T15:03:51;97970.16;;;10.47;78.45
26865;BME280;40618;51.166;10.322;2022-09-20T15:06:18;97961.56;;;10.45;78.14
26865;BME280;40618;51.166;10.322;2022-09-20T15:08:44;97964.22;;;10.42;78.27
26865;BME280;40618;51.166;10.322;2022-09-20T15:11:13;97970.41;;;10.37;78.28
26865;BME280;40618;51.166;10.322;2022-09-20T15:13:39;97968.00;;;10.26;77.50
26865;BME280;40618;51.166;10.322;2022-09-20T15:16:05;97973.28;;;10.20;77.80
26865;BME280;40618;51.166;10.322;2022-09-20T15:18:35;97975.91;;;10.18;78.52
26865;BME280;40618;51.166;10.322;2022-09-20T15:21:05;97972.50;;;10.16;77.94
26865;BME280;40618;51.166;10.322;2022-09-20T15:23:31;97974.03;;;10.25;78.41
26865;BME280;40618;51.166;10.322;2022-09-20T15:25:57;97971.34;;;10.31;78.00
26865;BME280;40618;51.166;10.322;2022-09-20T15:28:23;97979.84;;;10.39;78.52
26865;BME280;40618;51.166;10.322;2022-09-20T15:30:50;97981.56;;;10.39;78.25
26865;BME280;40618;51.166;10.322;2022-09-20T15:33:17;97975.34;;;10.47;78.07
26865;BME280;40618;51.166;10.322;2022-09-20T15:35:44;97979.56;;;10.52;78.07
26865;BME280;40618;51.166;10.322;2022-09-20T15:38:11;97982.09;;;10.55;78.24
26865;BME280;40618;51.166;10.322;2022-09-20T15:40:45;97981.13;;;10.59;78.03
26865;BME280;40618;51.166;10.322;2022-09-20T15:43:16;97982.66;;;10.69;78.08
26865;BME280;40618;51.166;10.322;2022-09-20T15:45:56;97985.88;;;10.79;78.08
26865;BME280;40618;51.166;10.322;2022-09-20T15:48:25;97988.47;;;10.79;78.28
26865;BME280;40618;51.166;10.322;2022-09-20T15:51:05;97985.09;;;10.75;77.89
26865;BME280;40618;51.166;10.322;2022-09-20T15:53:37;97980.63;;;10.82;77.83
26865;BME280;40618;51.166;10.322;2022-09-20T15:56:20;97981.47;;;10.84;77.74
26865;BME280;40618;51.166;10.322;2022-09-20T15:58:54;97980.94;;;10.68;77.78
26865;BME280;40618;51.166;10.322;2022-09-20T16:01:29;97981.06;;;10.63;77.71
26865;BME280;40618;51.166;10.322;2022-09-20T16:04:05;97987.13;;;10.62;77.69
26865;BME280;40618;51.166;10.322;2022-09-20T16:06:32;97989.75;;;10.61;77.73
26865;BME280;40618;51.166;10.322;2022-09-20T16:08:58;97989.78;;;10.58;77.85
26865;BME280;40618;51.166;10.322;2022-09-20T16:11:23;97996.00;;;10.50;77.91
26865;BME280;40618;51.166;10.322;2022-09-20T16:13:56;97996.88;;;10.49;77.83
26865;BME280;40618;51.166;10.322;2022-09-20T16:16:24;97990.88;;;10.47;77.80
26865;BME280;40618;51.166;10.322;2022-09-20T16:18:50;97995.25;;;10.44;77.48
26865;BME280;40618;51.166;10.322;2022-09-20T16:21:40;97991.03;;;10.40;77.85
26865;BME280;40618;51.166;10.322;2022-09-20T16:24:08;97997.88;;;10.42;78.05
26865;BME280;40618;51.166;10.322;2022-09-20T16:26:35;97992.66;;;10.44;78.44
26865;BME280;40618;51.166;10.322;2022-09-20T16:29:01;97998.66;;;10.47;78.27
26865;BME280;40618;51.166;10.322;2022-09-20T16:36:47;98001.28;;;10.46;78.28
26865;BME280;40618;51.166;10.322;2022-09-20T16:39:16;98006.44;;;10.46;77.96
26865;BME280;40618;51.166;10.322;2022-09-20T16:41:44;98003.91;;;10.44;77.71
26865;BME280;40618;51.166;10.322;2022-09-20T16:44:12;98006.50;;;10.43;78.33
26865;BME280;40618;51.166;10.322;2022-09-20T16:46:39;98011.75;;;10.40;77.71
26865;BME280;40618;51.166;10.322;2022-09-20T16:49:07;98013.56;;;10.35;78.04
26865;BME280;40618;51.166;10.322;2022-09-20T16:51:37;98018.88;;;10.27;78.08
26865;BME280;40618;51.166;10.322;2022-09-20T16:54:07;98018.13;;;10.22;77.47
26865;BME280;40618;51.166;10.322;2022-09-20T16:56:39;98026.75;;;10.21;77.51
26865;BME280;40618;51.166;10.322;2022-09-20T16:59:07;98027.63;;;10.20;77.81
26865;BME280;40618;51.166;10.322;2022-09-20T17:01:34;98030.19;;;10.23;78.03
26865;BME280;40618;51.166;10.322;2022-09-20T17:04:02;98030.09;;;10.26;77.68
26865;BME280;40618;51.166;10.322;2022-09-20T17:06:33;98041.34;;;10.25;77.99
26865;BME280;40618;51.166;10.322;2022-09-20T17:09:02;98037.06;;;10.22;78.24
26865;BME280;40618;51.166;10.322;2022-09-20T17:11:31;98040.59;;;10.18;78.29
26865;BME280;40618;51.166;10.322;2022-09-20T17:14:00;98050.16;;;10.16;78.43
26865;BME280;40618;51.166;10.322;2022-09-20T17:16:34;98053.59;;;10.15;78.54
26865;BME280;40618;51.166;10.322;2022-09-20T17:19:04;98048.50;;;10.12;78.02
26865;BME280;40618;51.166;10.322;2022-09-20T17:21:32;98052.00;;;10.09;78.01
26865;BME280;40618;51.166;10.322;2022-09-20T17:24:00;98060.75;;;10.02;77.65
26865;BME280;40618;51.166;10.322;2022-09-20T17:26:36;98067.66;;;10.02;78.20
26865;BME280;40618;51.166;10.322;2022-09-20T17:29:06;98069.34;;;10.03;77.95
26865;BME280;40618;51.166;10.322;2022-09-20T17:31:38;98072.88;;;9.98;78.48
26865;BME280;40618;51.166;10.322;2022-09-20T17:34:07;98078.13;;;9.95;78.04
26865;BME280;40618;51.166;10.322;2022-09-20T17:36:40;98084.25;;;9.90;78.05
26865;BME280;40618;51.166;10.322;2022-09-20T17:39:08;98082.53;;;9.89;78.11
26865;BME280;40618;51.166;10.322;2022-09-20T17:41:40;98086.88;;;9.87;78.60
26865;BME280;40618;51.166;10.322;2022-09-20T17:44:08;98085.19;;;9.86;78.17
26865;BME280;40618;51.166;10.322;2022-09-20T17:46:38;98082.63;;;9.82;78.14
26865;BME280;40618;51.166;10.322;2022-09-20T17:49:13;98086.13;;;9.81;78.14
26865;BME280;40618;51.166;10.322;2022-09-20T17:51:58;98094.00;;;9.74;78.09
26865;BME280;40618;51.166;10.322;2022-09-20T17:54:24;98096.66;;;9.71;78.34
26865;BME280;40618;51.166;10.322;2022-09-20T17:56:52;98098.38;;;9.69;77.82
26865;BME280;40618;51.166;10.322;2022-09-20T17:59:20;98102.72;;;9.68;78.12
26865;BME280;40618;51.166;10.322;2022-09-20T18:01:48;98097.56;;;9.67;78.27
26865;BME280;40618;51.166;10.322;2022-09-20T18:04:14;98107.91;;;9.67;78.05
26865;BME280;40618;51.166;10.322;2022-09-20T18:06:44;98104.44;;;9.68;78.32
26865;BME280;40618;51.166;10.322;2022-09-20T18:09:20;98108.69;;;9.70;78.10
26865;BME280;40618;51.166;10.322;2022-09-20T18:11:51;98112.16;;;9.71;78.54
26865;BME280;40618;51.166;10.322;2022-09-20T18:14:24;98110.47;;;9.68;78.27
26865;BME280;40618;51.166;10.322;2022-09-20T18:16:57;98103.56;;;9.69;78.37